sensor_id;sensor_type;location;lat;lon;timestamp;P1;durP1;ratioP1;P2;durP2;ratioP2
42018;SDS011;27703;51.980;5.848;2023-05-23T00:01:01;5.00;;;3.28;;
42018;SDS011;27703;51.980;5.848;2023-05-23T00:03:35;4.78;;;2.80;;
42018;SDS011;27703;51.980;5.848;2023-05-23T00:06:19;4.57;;;2.45;;
42018;SDS011;27703;51.980;5.848;2023-05-23T00:08:47;6.25;;;2.85;;
42018;SDS011;27703;51.980;5.848;2023-05-23T00:11:14;3.35;;;2.60;;
42018;SDS011;27703;51.980;5.848;2023-05-23T00:13:40;4.97;;;3.08;;
42018;SDS011;27703;51.980;5.848;2023-05-23T00:16:07;6.28;;;2.97;;
42018;SDS011;27703;51.980;5.848;2023-05-23T00:18:33;6.53;;;3.65;;
42018;SDS011;27703;51.980;5.848;2023-05-23T00:21:00;7.03;;;2.95;;
42018;SDS011;27703;51.980;5.848;2023-05-23T00:23:26;6.65;;;2.97;;
42018;SDS011;27703;51.980;5.848;2023-05-23T00:25:56;7.35;;;1.88;;
42018;SDS011;27703;51.980;5.848;2023-05-23T00:28:22;6.05;;;2.67;;
42018;SDS011;27703;51.980;5.848;2023-05-23T00:30:48;3.35;;;3.00;;
42018;SDS011;27703;51.980;5.848;2023-05-23T00:33:14;5.20;;;3.00;;
42018;SDS011;27703;51.980;5.848;2023-05-23T00:35:41;4.75;;;2.80;;
42018;SDS011;27703;51.980;5.848;2023-05-23T00:38:06;6.32;;;4.55;;
42018;SDS011;27703;51.980;5.848;2023-05-23T00:40:32;4.80;;;3.03;;
42018;SDS011;27703;51.980;5.848;2023-05-23T00:42:59;5.95;;;3.50;;
42018;SDS011;27703;51.980;5.848;2023-05-23T00:45:25;5.43;;;3.60;;
42018;SDS011;27703;51.980;5.848;2023-05-23T00:47:51;7.78;;;4.32;;
42018;SDS011;27703;51.980;5.848;2023-05-23T00:50:18;5.90;;;3.42;;
42018;SDS011;27703;51.980;5.848;2023-05-23T00:52:44;5.30;;;3.67;;
42018;SDS011;27703;51.980;5.848;2023-05-23T00:55:12;6.75;;;3.08;;
42018;SDS011;27703;51.980;5.848;2023-05-23T00:57:38;7.10;;;3.97;;
42018;SDS011;27703;51.980;5.848;2023-05-23T01:00:08;8.27;;;3.83;;
42018;SDS011;27703;51.980;5.848;2023-05-23T01:02:36;5.85;;;3.28;;
42018;SDS011;27703;51.980;5.848;2023-05-23T01:05:10;7.30;;;3.28;;
42018;SDS011;27703;51.980;5.848;2023-05-23T01:07:42;3.60;;;2.75;;
42018;SDS011;27703;51.980;5.848;2023-05-23T01:10:11;8.25;;;3.30;;
42018;SDS011;27703;51.980;5.848;2023-05-23T01:18:42;7.65;;;3.80;;
42018;SDS011;27703;51.980;5.848;2023-05-23T01:21:20;6.95;;;3.25;;
42018;SDS011;27703;51.980;5.848;2023-05-23T01:26:53;7.75;;;3.80;;
42018;SDS011;27703;51.980;5.848;2023-05-23T01:29:46;7.60;;;3.33;;
42018;SDS011;27703;51.980;5.848;2023-05-23T01:32:18;4.50;;;2.58;;
42018;SDS011;27703;51.980;5.848;2023-05-23T01:34:46;5.57;;;2.30;;
42018;SDS011;27703;51.980;5.848;2023-05-23T01:37:14;9.13;;;4.10;;
42018;SDS011;27703;51.980;5.848;2023-05-23T01:39:43;7.22;;;3.45;;
42018;SDS011;27703;51.980;5.848;2023-05-23T01:42:09;6.95;;;3.80;;
42018;SDS011;27703;51.980;5.848;2023-05-23T01:44:38;5.10;;;3.08;;
42018;SDS011;27703;51.980;5.848;2023-05-23T01:47:04;7.03;;;3.00;;
42018;SDS011;27703;51.980;5.848;2023-05-23T01:49:32;4.80;;;2.47;;
42018;SDS011;27703;51.980;5.848;2023-05-23T01:51:59;7.63;;;3.92;;
42018;SDS011;27703;51.980;5.848;2023-05-23T01:54:26;5.25;;;2.95;;
42018;SDS011;27703;51.980;5.848;2023-05-23T01:56:54;4.07;;;2.22;;
42018;SDS011;27703;51.980;5.848;2023-05-23T01:59:21;6.55;;;3.28;;
42018;SDS011;27703;51.980;5.848;2023-05-23T02:01:48;4.10;;;2.97;;
42018;SDS011;27703;51.980;5.848;2023-05-23T02:04:13;4.72;;;3.10;;
42018;SDS011;27703;51.980;5.848;2023-05-23T02:06:40;6.95;;;3.53;;
42018;SDS011;27703;51.980;5.848;2023-05-23T02:09:06;8.45;;;3.95;;
42018;SDS011;27703;51.980;5.848;2023-05-23T02:11:32;6.03;;;4.15;;
42018;SDS011;27703;51.980;5.848;2023-05-23T02:13:58;5.70;;;2.85;;
42018;SDS011;27703;51.980;5.848;2023-05-23T02:16:26;8.48;;;3.63;;
42018;SDS011;27703;51.980;5.848;2023-05-23T02:18:54;6.45;;;3.30;;
42018;SDS011;27703;51.980;5.848;2023-05-23T02:21:22;4.68;;;2.78;;
42018;SDS011;27703;51.980;5.848;2023-05-23T02:23:48;6.22;;;2.63;;
42018;SDS011;27703;51.980;5.848;2023-05-23T02:26:17;5.00;;;2.88;;
42018;SDS011;27703;51.980;5.848;2023-05-23T02:28:42;3.78;;;2.55;;
42018;SDS011;27703;51.980;5.848;2023-05-23T02:31:08;6.30;;;3.20;;
42018;SDS011;27703;51.980;5.848;2023-05-23T02:33:34;7.25;;;3.72;;
42018;SDS011;27703;51.980;5.848;2023-05-23T02:35:59;5.40;;;2.92;;
42018;SDS011;27703;51.980;5.848;2023-05-23T02:38:26;5.25;;;3.42;;
42018;SDS011;27703;51.980;5.848;2023-05-23T02:40:51;5.10;;;2.95;;
42018;SDS011;27703;51.980;5.848;2023-05-23T02:43:18;6.03;;;3.63;;
42018;SDS011;27703;51.980;5.848;2023-05-23T02:45:44;6.43;;;3.95;;
42018;SDS011;27703;51.980;5.848;2023-05-23T02:48:09;6.72;;;3.33;;
42018;SDS011;27703;51.980;5.848;2023-05-23T02:50:36;6.93;;;3.80;;
42018;SDS011;27703;51.980;5.848;2023-05-23T02:53:01;8.02;;;4.32;;
42018;SDS011;27703;51.980;5.848;2023-05-23T02:55:27;7.47;;;3.67;;
42018;SDS011;27703;51.980;5.848;2023-05-23T02:57:53;7.78;;;3.25;;
42018;SDS011;27703;51.980;5.848;2023-05-23T03:00:19;6.00;;;3.60;;
42018;SDS011;27703;51.980;5.848;2023-05-23T03:02:44;8.18;;;2.72;;
42018;SDS011;27703;51.980;5.848;2023-05-23T03:05:10;5.32;;;2.78;;
42018;SDS011;27703;51.980;5.848;2023-05-23T03:07:38;8.65;;;3.42;;
42018;SDS011;27703;51.980;5.848;2023-05-23T03:10:04;8.55;;;3.80;;
42018;SDS011;27703;51.980;5.848;2023-05-23T03:12:32;4.45;;;3.33;;
42018;SDS011;27703;51.980;5.848;2023-05-23T03:14:58;7.45;;;2.92;;
42018;SDS011;27703;51.980;5.848;2023-05-23T03:17:24;4.82;;;3.22;;
42018;SDS011;27703;51.980;5.848;2023-05-23T03:19:50;7.68;;;3.42;;
42018;SDS011;27703;51.980;5.848;2023-05-23T03:22:16;6.28;;;2.72;;
42018;SDS011;27703;51.980;5.848;2023-05-23T03:24:44;5.35;;;2.80;;
42018;SDS011;27703;51.980;5.848;2023-05-23T03:27:10;3.50;;;1.95;;
42018;SDS011;27703;51.980;5.848;2023-05-23T03:29:35;3.85;;;1.55;;
42018;SDS011;27703;51.980;5.848;2023-05-23T03:32:01;9.10;;;2.45;;
42018;SDS011;27703;51.980;5.848;2023-05-23T03:34:26;3.40;;;1.30;;
42018;SDS011;27703;51.980;5.848;2023-05-23T03:36:52;4.57;;;1.63;;
42018;SDS011;27703;51.980;5.848;2023-05-23T03:39:17;2.55;;;1.67;;
42018;SDS011;27703;51.980;5.848;2023-05-23T03:41:43;5.88;;;2.03;;
42018;SDS011;27703;51.980;5.848;2023-05-23T03:44:09;3.90;;;2.00;;
42018;SDS011;27703;51.980;5.848;2023-05-23T03:46:34;3.90;;;1.90;;
42018;SDS011;27703;51.980;5.848;2023-05-23T03:49:00;4.97;;;1.80;;
42018;SDS011;27703;51.980;5.848;2023-05-23T03:51:25;4.90;;;1.58;;
42018;SDS011;27703;51.980;5.848;2023-05-23T03:53:52;7.60;;;2.72;;
42018;SDS011;27703;51.980;5.848;2023-05-23T03:56:17;2.78;;;1.67;;
42018;SDS011;27703;51.980;5.848;2023-05-23T03:58:43;8.18;;;2.17;;
42018;SDS011;27703;51.980;5.848;2023-05-23T04:01:09;2.72;;;1.77;;
42018;SDS011;27703;51.980;5.848;2023-05-23T04:03:34;5.38;;;2.63;;
42018;SDS011;27703;51.980;5.848;2023-05-23T04:06:00;4.57;;;2.50;;
42018;SDS011;27703;51.980;5.848;2023-05-23T04:08:26;5.88;;;2.80;;
42018;SDS011;27703;51.980;5.848;2023-05-23T04:10:53;7.75;;;2.22;;
42018;SDS011;27703;51.980;5.848;2023-05-23T04:13:18;7.63;;;3.10;;
42018;SDS011;27703;51.980;5.848;2023-05-23T04:15:44;6.78;;;2.22;;
42018;SDS011;27703;51.980;5.848;2023-05-23T04:18:11;4.70;;;2.13;;
42018;SDS011;27703;51.980;5.848;2023-05-23T04:20:38;7.18;;;2.50;;
42018;SDS011;27703;51.980;5.848;2023-05-23T04:23:05;6.15;;;2.42;;
42018;SDS011;27703;51.980;5.848;2023-05-23T04:25:31;5.93;;;2.75;;
42018;SDS011;27703;51.980;5.848;2023-05-23T04:27:58;5.22;;;2.33;;
42018;SDS011;27703;51.980;5.848;2023-05-23T04:30:24;9.18;;;3.20;;
42018;SDS011;27703;51.980;5.848;2023-05-23T04:32:49;9.40;;;3.58;;
42018;SDS011;27703;51.980;5.848;2023-05-23T04:35:15;6.82;;;2.78;;
42018;SDS011;27703;51.980;5.848;2023-05-23T04:37:40;8.63;;;2.88;;
42018;SDS011;27703;51.980;5.848;2023-05-23T04:40:06;9.40;;;4.65;;
42018;SDS011;27703;51.980;5.848;2023-05-23T04:42:32;11.48;;;4.45;;
42018;SDS011;27703;51.980;5.848;2023-05-23T04:45:01;11.75;;;3.80;;
42018;SDS011;27703;51.980;5.848;2023-05-23T04:47:28;8.23;;;3.75;;
42018;SDS011;27703;51.980;5.848;2023-05-23T04:49:58;10.90;;;4.13;;
42018;SDS011;27703;51.980;5.848;2023-05-23T04:52:24;8.82;;;3.92;;
42018;SDS011;27703;51.980;5.848;2023-05-23T04:54:52;6.50;;;2.63;;
42018;SDS011;27703;51.980;5.848;2023-05-23T04:57:17;7.18;;;3.70;;
42018;SDS011;27703;51.980;5.848;2023-05-23T04:59:45;10.27;;;3.88;;
42018;SDS011;27703;51.980;5.848;2023-05-23T05:02:11;12.45;;;4.50;;
42018;SDS011;27703;51.980;5.848;2023-05-23T05:04:39;10.60;;;4.18;;
42018;SDS011;27703;51.980;5.848;2023-05-23T05:07:05;8.43;;;4.28;;
42018;SDS011;27703;51.980;5.848;2023-05-23T05:09:30;10.13;;;3.67;;
42018;SDS011;27703;51.980;5.848;2023-05-23T05:11:56;9.88;;;3.35;;
42018;SDS011;27703;51.980;5.848;2023-05-23T05:14:24;9.10;;;2.75;;
42018;SDS011;27703;51.980;5.848;2023-05-23T05:16:50;8.90;;;3.20;;
42018;SDS011;27703;51.980;5.848;2023-05-23T05:19:16;10.35;;;3.47;;
42018;SDS011;27703;51.980;5.848;2023-05-23T05:21:42;8.05;;;3.35;;
42018;SDS011;27703;51.980;5.848;2023-05-23T05:24:07;8.40;;;3.35;;
42018;SDS011;27703;51.980;5.848;2023-05-23T05:26:34;7.60;;;2.67;;
42018;SDS011;27703;51.980;5.848;2023-05-23T05:29:00;6.68;;;2.70;;
42018;SDS011;27703;51.980;5.848;2023-05-23T05:31:26;11.23;;;2.78;;
42018;SDS011;27703;51.980;5.848;2023-05-23T05:33:53;4.82;;;1.98;;
42018;SDS011;27703;51.980;5.848;2023-05-23T05:36:19;7.47;;;2.78;;
42018;SDS011;27703;51.980;5.848;2023-05-23T05:38:47;9.60;;;2.70;;
42018;SDS011;27703;51.980;5.848;2023-05-23T05:41:14;5.22;;;2.30;;
42018;SDS011;27703;51.980;5.848;2023-05-23T05:43:42;4.25;;;1.95;;
42018;SDS011;27703;51.980;5.848;2023-05-23T05:46:09;5.10;;;1.98;;
42018;SDS011;27703;51.980;5.848;2023-05-23T05:48:35;5.80;;;1.58;;
42018;SDS011;27703;51.980;5.848;2023-05-23T05:51:05;7.82;;;1.83;;
42018;SDS011;27703;51.980;5.848;2023-05-23T05:53:32;9.13;;;2.08;;
42018;SDS011;27703;51.980;5.848;2023-05-23T05:55:58;5.15;;;1.55;;
42018;SDS011;27703;51.980;5.848;2023-05-23T05:58:24;10.68;;;2.45;;
42018;SDS011;27703;51.980;5.848;2023-05-23T06:00:53;5.53;;;1.50;;
42018;SDS011;27703;51.980;5.848;2023-05-23T06:03:18;7.88;;;2.08;;
42018;SDS011;27703;51.980;5.848;2023-05-23T06:05:44;10.20;;;1.83;;
42018;SDS011;27703;51.980;5.848;2023-05-23T06:08:10;5.43;;;1.58;;
42018;SDS011;27703;51.980;5.848;2023-05-23T06:10:38;5.38;;;1.42;;
42018;SDS011;27703;51.980;5.848;2023-05-23T06:13:04;3.45;;;1.15;;
42018;SDS011;27703;51.980;5.848;2023-05-23T06:15:30;8.85;;;2.33;;
42018;SDS011;27703;51.980;5.848;2023-05-23T06:17:55;3.05;;;1.00;;
42018;SDS011;27703;51.980;5.848;2023-05-23T06:20:24;7.25;;;1.45;;
42018;SDS011;27703;51.980;5.848;2023-05-23T06:22:50;9.57;;;1.70;;
42018;SDS011;27703;51.980;5.848;2023-05-23T06:25:18;7.88;;;1.55;;
42018;SDS011;27703;51.980;5.848;2023-05-23T06:27:43;7.32;;;1.52;;
42018;SDS011;27703;51.980;5.848;2023-05-23T06:30:10;8.75;;;1.52;;
42018;SDS011;27703;51.980;5.848;2023-05-23T06:32:37;9.13;;;2.20;;
42018;SDS011;27703;51.980;5.848;2023-05-23T06:35:04;6.18;;;1.33;;
42018;SDS011;27703;51.980;5.848;2023-05-23T06:37:30;8.18;;;1.23;;
42018;SDS011;27703;51.980;5.848;2023-05-23T06:39:56;5.68;;;1.15;;
42018;SDS011;27703;51.980;5.848;2023-05-23T06:42:21;4.28;;;1.02;;
42018;SDS011;27703;51.980;5.848;2023-05-23T06:44:47;4.05;;;0.95;;
42018;SDS011;27703;51.980;5.848;2023-05-23T06:47:13;3.83;;;1.30;;
42018;SDS011;27703;51.980;5.848;2023-05-23T06:49:41;6.60;;;1.70;;
42018;SDS011;27703;51.980;5.848;2023-05-23T06:52:09;7.80;;;1.80;;
42018;SDS011;27703;51.980;5.848;2023-05-23T06:54:35;8.95;;;1.90;;
42018;SDS011;27703;51.980;5.848;2023-05-23T06:57:00;6.10;;;1.80;;
42018;SDS011;27703;51.980;5.848;2023-05-23T06:59:26;7.78;;;1.52;;
42018;SDS011;27703;51.980;5.848;2023-05-23T07:01:52;5.88;;;2.00;;
42018;SDS011;27703;51.980;5.848;2023-05-23T07:04:17;5.03;;;1.75;;
42018;SDS011;27703;51.980;5.848;2023-05-23T07:06:43;6.07;;;1.80;;
42018;SDS011;27703;51.980;5.848;2023-05-23T07:09:09;3.33;;;1.23;;
42018;SDS011;27703;51.980;5.848;2023-05-23T07:11:35;6.13;;;1.63;;
42018;SDS011;27703;51.980;5.848;2023-05-23T07:14:03;5.50;;;1.67;;
42018;SDS011;27703;51.980;5.848;2023-05-23T07:16:29;7.43;;;1.67;;
42018;SDS011;27703;51.980;5.848;2023-05-23T07:18:55;4.18;;;1.50;;
42018;SDS011;27703;51.980;5.848;2023-05-23T07:21:25;7.25;;;2.30;;
42018;SDS011;27703;51.980;5.848;2023-05-23T07:23:51;5.15;;;1.55;;
42018;SDS011;27703;51.980;5.848;2023-05-23T07:26:16;5.22;;;1.88;;
42018;SDS011;27703;51.980;5.848;2023-05-23T07:28:42;7.25;;;2.00;;
42018;SDS011;27703;51.980;5.848;2023-05-23T07:31:07;5.65;;;1.98;;
42018;SDS011;27703;51.980;5.848;2023-05-23T07:33:33;6.20;;;1.90;;
42018;SDS011;27703;51.980;5.848;2023-05-23T07:35:59;5.32;;;1.92;;
42018;SDS011;27703;51.980;5.848;2023-05-23T07:38:25;4.00;;;1.17;;
42018;SDS011;27703;51.980;5.848;2023-05-23T07:40:51;5.88;;;1.50;;
42018;SDS011;27703;51.980;5.848;2023-05-23T07:43:16;5.20;;;1.60;;
42018;SDS011;27703;51.980;5.848;2023-05-23T07:45:44;4.97;;;1.50;;
42018;SDS011;27703;51.980;5.848;2023-05-23T07:48:10;5.18;;;1.48;;
42018;SDS011;27703;51.980;5.848;2023-05-23T07:50:36;3.05;;;0.98;;
42018;SDS011;27703;51.980;5.848;2023-05-23T07:53:04;4.75;;;1.33;;
42018;SDS011;27703;51.980;5.848;2023-05-23T07:55:30;5.50;;;1.17;;
42018;SDS011;27703;51.980;5.848;2023-05-23T07:57:59;6.72;;;1.50;;
42018;SDS011;27703;51.980;5.848;2023-05-23T08:00:27;3.42;;;1.50;;
42018;SDS011;27703;51.980;5.848;2023-05-23T08:02:53;5.35;;;1.52;;
42018;SDS011;27703;51.980;5.848;2023-05-23T08:05:18;4.43;;;1.30;;
42018;SDS011;27703;51.980;5.848;2023-05-23T08:07:51;11.48;;;1.80;;
42018;SDS011;27703;51.980;5.848;2023-05-23T08:10:18;6.22;;;1.30;;
42018;SDS011;27703;51.980;5.848;2023-05-23T08:12:46;2.40;;;0.90;;
42018;SDS011;27703;51.980;5.848;2023-05-23T08:15:15;3.30;;;0.85;;
42018;SDS011;27703;51.980;5.848;2023-05-23T08:17:41;3.72;;;0.90;;
42018;SDS011;27703;51.980;5.848;2023-05-23T08:20:07;3.58;;;0.93;;
42018;SDS011;27703;51.980;5.848;2023-05-23T08:22:34;5.65;;;1.20;;
42018;SDS011;27703;51.980;5.848;2023-05-23T08:25:00;6.05;;;0.80;;
42018;SDS011;27703;51.980;5.848;2023-05-23T08:27:27;3.60;;;0.50;;
42018;SDS011;27703;51.980;5.848;2023-05-23T08:29:54;3.65;;;0.60;;
42018;SDS011;27703;51.980;5.848;2023-05-23T08:32:21;6.97;;;0.60;;
42018;SDS011;27703;51.980;5.848;2023-05-23T08:34:47;3.03;;;0.50;;
42018;SDS011;27703;51.980;5.848;2023-05-23T08:37:15;4.63;;;0.43;;
42018;SDS011;27703;51.980;5.848;2023-05-23T08:39:41;3.72;;;0.40;;
42018;SDS011;27703;51.980;5.848;2023-05-23T08:42:08;4.50;;;0.70;;
42018;SDS011;27703;51.980;5.848;2023-05-23T08:44:34;3.97;;;0.52;;
42018;SDS011;27703;51.980;5.848;2023-05-23T08:47:00;5.40;;;0.50;;
42018;SDS011;27703;51.980;5.848;2023-05-23T08:49:31;7.63;;;0.70;;
42018;SDS011;27703;51.980;5.848;2023-05-23T08:51:58;5.25;;;0.60;;
42018;SDS011;27703;51.980;5.848;2023-05-23T08:54:26;5.45;;;0.80;;
42018;SDS011;27703;51.980;5.848;2023-05-23T08:56:53;4.07;;;0.52;;
42018;SDS011;27703;51.980;5.848;2023-05-23T08:59:19;4.63;;;0.50;;
42018;SDS011;27703;51.980;5.848;2023-05-23T09:01:46;4.43;;;0.50;;
42018;SDS011;27703;51.980;5.848;2023-05-23T09:04:15;2.97;;;0.68;;
42018;SDS011;27703;51.980;5.848;2023-05-23T09:06:41;2.30;;;0.60;;
42018;SDS011;27703;51.980;5.848;2023-05-23T09:09:09;3.05;;;0.50;;
42018;SDS011;27703;51.980;5.848;2023-05-23T09:11:34;6.28;;;0.60;;
42018;SDS011;27703;51.980;5.848;2023-05-23T09:14:01;5.45;;;0.60;;
42018;SDS011;27703;51.980;5.848;2023-05-23T09:16:32;5.97;;;0.50;;
42018;SDS011;27703;51.980;5.848;2023-05-23T09:19:10;4.57;;;0.93;;
42018;SDS011;27703;51.980;5.848;2023-05-23T09:21:37;4.47;;;0.47;;
42018;SDS011;27703;51.980;5.848;2023-05-23T09:24:06;2.90;;;0.50;;
42018;SDS011;27703;51.980;5.848;2023-05-23T09:26:32;4.53;;;0.68;;
42018;SDS011;27703;51.980;5.848;2023-05-23T09:29:00;6.72;;;0.98;;
42018;SDS011;27703;51.980;5.848;2023-05-23T09:33:56;4.78;;;0.80;;
42018;SDS011;27703;51.980;5.848;2023-05-23T09:36:23;9.30;;;0.55;;
42018;SDS011;27703;51.980;5.848;2023-05-23T09:38:53;8.32;;;0.85;;
42018;SDS011;27703;51.980;5.848;2023-05-23T09:41:19;7.53;;;0.80;;
42018;SDS011;27703;51.980;5.848;2023-05-23T09:43:49;4.57;;;0.70;;
42018;SDS011;27703;51.980;5.848;2023-05-23T09:46:19;7.03;;;0.95;;
42018;SDS011;27703;51.980;5.848;2023-05-23T09:48:49;5.18;;;0.68;;
42018;SDS011;27703;51.980;5.848;2023-05-23T09:53:46;5.03;;;0.40;;
42018;SDS011;27703;51.980;5.848;2023-05-23T09:56:14;5.80;;;0.40;;
42018;SDS011;27703;51.980;5.848;2023-05-23T09:58:50;5.25;;;0.50;;
42018;SDS011;27703;51.980;5.848;2023-05-23T10:01:20;4.18;;;0.60;;
42018;SDS011;27703;51.980;5.848;2023-05-23T10:03:51;8.88;;;0.77;;
42018;SDS011;27703;51.980;5.848;2023-05-23T10:06:24;6.40;;;0.50;;
42018;SDS011;27703;51.980;5.848;2023-05-23T10:09:05;8.95;;;0.55;;
42018;SDS011;27703;51.980;5.848;2023-05-23T10:14:01;7.80;;;0.70;;
42018;SDS011;27703;51.980;5.848;2023-05-23T10:19:26;6.65;;;0.50;;
42018;SDS011;27703;51.980;5.848;2023-05-23T10:22:05;4.35;;;0.52;;
42018;SDS011;27703;51.980;5.848;2023-05-23T10:24:34;7.15;;;0.60;;
42018;SDS011;27703;51.980;5.848;2023-05-23T10:27:01;6.32;;;1.15;;
42018;SDS011;27703;51.980;5.848;2023-05-23T10:29:30;2.55;;;0.57;;
42018;SDS011;27703;51.980;5.848;2023-05-23T10:32:00;4.65;;;0.60;;
42018;SDS011;27703;51.980;5.848;2023-05-23T10:34:40;5.75;;;0.93;;
42018;SDS011;27703;51.980;5.848;2023-05-23T10:37:17;4.80;;;0.65;;
42018;SDS011;27703;51.980;5.848;2023-05-23T10:40:06;5.20;;;0.60;;
42018;SDS011;27703;51.980;5.848;2023-05-23T10:45:41;4.57;;;0.50;;
42018;SDS011;27703;51.980;5.848;2023-05-23T10:53:52;6.32;;;0.52;;
42018;SDS011;27703;51.980;5.848;2023-05-23T10:56:22;10.38;;;0.90;;
42018;SDS011;27703;51.980;5.848;2023-05-23T10:58:55;6.20;;;0.80;;
42018;SDS011;27703;51.980;5.848;2023-05-23T11:01:24;5.22;;;0.75;;
42018;SDS011;27703;51.980;5.848;2023-05-23T11:03:51;6.45;;;0.75;;
42018;SDS011;27703;51.980;5.848;2023-05-23T11:09:14;8.63;;;0.70;;
42018;SDS011;27703;51.980;5.848;2023-05-23T11:19:37;3.17;;;0.47;;
42018;SDS011;27703;51.980;5.848;2023-05-23T11:22:04;5.25;;;0.60;;
42018;SDS011;27703;51.980;5.848;2023-05-23T11:24:46;4.85;;;0.60;;
42018;SDS011;27703;51.980;5.848;2023-05-23T11:27:16;6.25;;;0.52;;
42018;SDS011;27703;51.980;5.848;2023-05-23T11:30:11;5.35;;;0.50;;
42018;SDS011;27703;51.980;5.848;2023-05-23T11:32:38;3.60;;;0.77;;
42018;SDS011;27703;51.980;5.848;2023-05-23T11:35:05;4.07;;;0.40;;
42018;SDS011;27703;51.980;5.848;2023-05-23T11:37:35;5.57;;;0.80;;
42018;SDS011;27703;51.980;5.848;2023-05-23T11:43:07;5.25;;;0.50;;
42018;SDS011;27703;51.980;5.848;2023-05-23T11:45:38;5.57;;;0.80;;
42018;SDS011;27703;51.980;5.848;2023-05-23T11:48:07;5.70;;;0.70;;
42018;SDS011;27703;51.980;5.848;2023-05-23T11:50:34;4.13;;;0.40;;
42018;SDS011;27703;51.980;5.848;2023-05-23T11:53:10;6.57;;;0.60;;
42018;SDS011;27703;51.980;5.848;2023-05-23T11:55:38;3.60;;;0.57;;
42018;SDS011;27703;51.980;5.848;2023-05-23T11:58:08;5.03;;;0.47;;
42018;SDS011;27703;51.980;5.848;2023-05-23T12:00:34;4.13;;;0.40;;
42018;SDS011;27703;51.980;5.848;2023-05-23T12:03:10;5.25;;;0.45;;
42018;SDS011;27703;51.980;5.848;2023-05-23T12:05:41;5.80;;;0.60;;
42018;SDS011;27703;51.980;5.848;2023-05-23T12:08:14;3.78;;;0.30;;
42018;SDS011;27703;51.980;5.848;2023-05-23T12:10:58;5.97;;;0.70;;
42018;SDS011;27703;51.980;5.848;2023-05-23T12:13:26;3.30;;;0.50;;
42018;SDS011;27703;51.980;5.848;2023-05-23T12:15:58;1.92;;;0.43;;
42018;SDS011;27703;51.980;5.848;2023-05-23T12:18:31;2.28;;;0.40;;
42018;SDS011;27703;51.980;5.848;2023-05-23T12:21:05;2.10;;;0.30;;
42018;SDS011;27703;51.980;5.848;2023-05-23T12:23:45;6.93;;;0.40;;
42018;SDS011;27703;51.980;5.848;2023-05-23T12:26:10;2.15;;;0.30;;
42018;SDS011;27703;51.980;5.848;2023-05-23T12:28:44;2.60;;;0.40;;
42018;SDS011;27703;51.980;5.848;2023-05-23T12:31:22;3.43;;;0.50;;
42018;SDS011;27703;51.980;5.848;2023-05-23T12:33:53;5.35;;;0.85;;
42018;SDS011;27703;51.980;5.848;2023-05-23T12:36:24;3.25;;;0.40;;
42018;SDS011;27703;51.980;5.848;2023-05-23T12:39:00;3.30;;;0.32;;
42018;SDS011;27703;51.980;5.848;2023-05-23T12:43:56;6.75;;;0.50;;
42018;SDS011;27703;51.980;5.848;2023-05-23T12:46:33;2.28;;;0.35;;
42018;SDS011;27703;51.980;5.848;2023-05-23T12:48:59;4.05;;;0.30;;
42018;SDS011;27703;51.980;5.848;2023-05-23T12:51:24;3.65;;;0.40;;
42018;SDS011;27703;51.980;5.848;2023-05-23T12:53:50;4.97;;;0.73;;
42018;SDS011;27703;51.980;5.848;2023-05-23T12:56:19;3.00;;;0.28;;
42018;SDS011;27703;51.980;5.848;2023-05-23T12:58:47;5.18;;;0.50;;
42018;SDS011;27703;51.980;5.848;2023-05-23T13:01:13;2.03;;;0.32;;
42018;SDS011;27703;51.980;5.848;2023-05-23T13:03:40;3.40;;;0.30;;
42018;SDS011;27703;51.980;5.848;2023-05-23T13:06:09;5.45;;;0.55;;
42018;SDS011;27703;51.980;5.848;2023-05-23T13:08:37;2.45;;;0.30;;
42018;SDS011;27703;51.980;5.848;2023-05-23T13:11:02;4.60;;;0.38;;
42018;SDS011;27703;51.980;5.848;2023-05-23T13:13:29;3.90;;;0.40;;
42018;SDS011;27703;51.980;5.848;2023-05-23T13:15:56;4.43;;;0.40;;
42018;SDS011;27703;51.980;5.848;2023-05-23T13:18:22;4.70;;;0.40;;
42018;SDS011;27703;51.980;5.848;2023-05-23T13:20:48;2.90;;;0.50;;
42018;SDS011;27703;51.980;5.848;2023-05-23T13:23:13;4.07;;;0.40;;
42018;SDS011;27703;51.980;5.848;2023-05-23T13:25:42;4.50;;;0.57;;
42018;SDS011;27703;51.980;5.848;2023-05-23T13:28:10;2.40;;;0.30;;
42018;SDS011;27703;51.980;5.848;2023-05-23T13:30:39;5.40;;;0.38;;
42018;SDS011;27703;51.980;5.848;2023-05-23T13:33:05;3.67;;;0.50;;
42018;SDS011;27703;51.980;5.848;2023-05-23T13:35:37;5.35;;;0.40;;
42018;SDS011;27703;51.980;5.848;2023-05-23T13:38:04;3.60;;;0.50;;
42018;SDS011;27703;51.980;5.848;2023-05-23T13:40:30;3.17;;;0.40;;
42018;SDS011;27703;51.980;5.848;2023-05-23T13:42:56;2.35;;;0.30;;
42018;SDS011;27703;51.980;5.848;2023-05-23T13:45:22;6.05;;;0.75;;
42018;SDS011;27703;51.980;5.848;2023-05-23T13:47:48;3.88;;;0.40;;
42018;SDS011;27703;51.980;5.848;2023-05-23T13:50:14;3.88;;;0.50;;
42018;SDS011;27703;51.980;5.848;2023-05-23T13:52:40;5.03;;;0.60;;
42018;SDS011;27703;51.980;5.848;2023-05-23T13:55:06;3.50;;;0.50;;
42018;SDS011;27703;51.980;5.848;2023-05-23T13:57:31;4.50;;;0.52;;
42018;SDS011;27703;51.980;5.848;2023-05-23T13:59:57;4.07;;;0.40;;
42018;SDS011;27703;51.980;5.848;2023-05-23T14:02:22;2.50;;;0.30;;
42018;SDS011;27703;51.980;5.848;2023-05-23T14:04:48;2.00;;;0.35;;
42018;SDS011;27703;51.980;5.848;2023-05-23T14:07:14;1.92;;;0.30;;
42018;SDS011;27703;51.980;5.848;2023-05-23T14:09:40;3.70;;;0.30;;
42018;SDS011;27703;51.980;5.848;2023-05-23T14:12:06;2.00;;;0.40;;
42018;SDS011;27703;51.980;5.848;2023-05-23T14:14:32;5.00;;;0.40;;
42018;SDS011;27703;51.980;5.848;2023-05-23T14:16:57;2.83;;;0.40;;
42018;SDS011;27703;51.980;5.848;2023-05-23T14:19:23;3.30;;;0.40;;
42018;SDS011;27703;51.980;5.848;2023-05-23T14:21:48;6.55;;;0.65;;
42018;SDS011;27703;51.980;5.848;2023-05-23T14:24:14;4.30;;;0.40;;
42018;SDS011;27703;51.980;5.848;2023-05-23T14:26:40;4.28;;;0.30;;
42018;SDS011;27703;51.980;5.848;2023-05-23T14:29:06;2.30;;;0.38;;
42018;SDS011;27703;51.980;5.848;2023-05-23T14:31:31;5.55;;;0.65;;
42018;SDS011;27703;51.980;5.848;2023-05-23T14:33:57;8.15;;;0.65;;
42018;SDS011;27703;51.980;5.848;2023-05-23T14:36:23;5.20;;;0.73;;
42018;SDS011;27703;51.980;5.848;2023-05-23T14:38:50;6.13;;;0.68;;
42018;SDS011;27703;51.980;5.848;2023-05-23T14:41:16;5.60;;;0.60;;
42018;SDS011;27703;51.980;5.848;2023-05-23T14:43:42;7.32;;;0.70;;
42018;SDS011;27703;51.980;5.848;2023-05-23T14:46:08;4.45;;;0.60;;
42018;SDS011;27703;51.980;5.848;2023-05-23T14:48:33;4.55;;;0.55;;
42018;SDS011;27703;51.980;5.848;2023-05-23T14:50:59;2.33;;;0.45;;
42018;SDS011;27703;51.980;5.848;2023-05-23T14:53:28;5.63;;;0.50;;
42018;SDS011;27703;51.980;5.848;2023-05-23T14:55:54;5.28;;;0.38;;
42018;SDS011;27703;51.980;5.848;2023-05-23T14:58:20;3.83;;;0.30;;
42018;SDS011;27703;51.980;5.848;2023-05-23T15:00:46;4.65;;;0.47;;
42018;SDS011;27703;51.980;5.848;2023-05-23T15:03:13;2.10;;;0.30;;
42018;SDS011;27703;51.980;5.848;2023-05-23T15:05:39;3.92;;;0.50;;
42018;SDS011;27703;51.980;5.848;2023-05-23T15:08:04;2.75;;;0.40;;
42018;SDS011;27703;51.980;5.848;2023-05-23T15:10:30;2.60;;;0.40;;
42018;SDS011;27703;51.980;5.848;2023-05-23T15:12:56;1.98;;;0.38;;
42018;SDS011;27703;51.980;5.848;2023-05-23T15:15:21;3.83;;;0.50;;
42018;SDS011;27703;51.980;5.848;2023-05-23T15:17:48;3.75;;;0.40;;
42018;SDS011;27703;51.980;5.848;2023-05-23T15:20:15;2.30;;;0.43;;
42018;SDS011;27703;51.980;5.848;2023-05-23T15:22:41;3.92;;;0.30;;
42018;SDS011;27703;51.980;5.848;2023-05-23T15:25:07;2.53;;;0.40;;
42018;SDS011;27703;51.980;5.848;2023-05-23T15:27:33;6.25;;;0.73;;
42018;SDS011;27703;51.980;5.848;2023-05-23T15:29:59;2.55;;;0.43;;
42018;SDS011;27703;51.980;5.848;2023-05-23T15:32:25;6.63;;;0.52;;
42018;SDS011;27703;51.980;5.848;2023-05-23T15:34:51;3.95;;;0.40;;